createdAt,value
2022-08-24T00:02:17.217Z,22.78
2022-08-24T00:04:43.317Z,22.68
2022-08-24T00:07:21.388Z,22.76
2022-08-24T00:09:53.792Z,22.85
2022-08-24T00:12:19.864Z,22.92
2022-08-24T00:14:45.873Z,22.90
2022-08-24T00:17:12.652Z,22.71
2022-08-24T00:19:38.728Z,22.87
2022-08-24T00:22:04.727Z,22.82
2022-08-24T00:24:30.713Z,22.63
2022-08-24T00:26:57.615Z,22.44
2022-08-24T00:29:23.639Z,22.72
2022-08-24T00:31:49.711Z,22.46
2022-08-24T00:34:16.748Z,22.50
2022-08-24T00:36:42.768Z,22.26
2022-08-24T00:39:08.754Z,22.28
2022-08-24T00:41:35.654Z,22.44
2022-08-24T00:44:01.675Z,22.49
2022-08-24T00:46:27.648Z,22.33
2022-08-24T00:48:53.671Z,22.12
2022-08-24T00:51:20.252Z,22.20
2022-08-24T00:53:46.688Z,22.14
2022-08-24T00:56:12.713Z,21.99
2022-08-24T00:58:39.498Z,21.74
2022-08-24T01:01:05.568Z,21.89
2022-08-24T01:03:32.542Z,21.96
2022-08-24T01:05:59.314Z,22.19
2022-08-24T01:08:25.356Z,21.92
2022-08-24T01:10:51.394Z,21.85
2022-08-24T01:13:17.971Z,21.97
2022-08-24T01:15:43.987Z,21.96
2022-08-24T01:18:10.099Z,21.67
2022-08-24T01:20:36.860Z,21.71
2022-08-24T01:23:02.923Z,21.52
2022-08-24T01:31:03.941Z,21.58
2022-08-24T03:31:17.317Z,20.73
2022-08-24T03:33:43.263Z,20.73
2022-08-24T03:36:13.680Z,20.83
2022-08-24T03:38:41.482Z,20.85
2022-08-24T03:41:08.187Z,20.87
2022-08-24T03:43:34.149Z,20.83
2022-08-24T03:46:00.813Z,20.66
2022-08-24T03:48:27.483Z,20.53
2022-08-24T03:50:53.476Z,20.73
2022-08-24T03:53:19.667Z,20.72
2022-08-24T03:55:46.432Z,20.68
2022-08-24T03:58:12.439Z,20.58
2022-08-24T04:00:38.426Z,20.69
2022-08-24T04:03:05.258Z,20.62
2022-08-24T04:05:34.916Z,20.75
2022-08-24T04:08:02.002Z,20.39
2022-08-24T04:10:28.420Z,20.26
2022-08-24T04:12:54.940Z,20.47
2022-08-24T04:15:22.285Z,20.51
2022-08-24T04:17:48.242Z,20.53
2022-08-24T04:20:14.223Z,20.65
2022-08-24T04:22:42.324Z,20.68
2022-08-24T04:25:09.329Z,20.68
2022-08-24T04:27:36.448Z,20.63
2022-08-24T04:30:02.526Z,20.62
2022-08-24T04:32:28.473Z,20.48
2022-08-24T04:34:55.214Z,20.49
2022-08-24T04:37:27.029Z,20.53
2022-08-24T04:39:55.353Z,20.58
2022-08-24T04:42:21.438Z,20.63
2022-08-24T04:44:47.381Z,20.87
2022-08-24T04:47:13.948Z,20.78
2022-08-24T04:49:40.538Z,20.74
2022-08-24T04:52:06.519Z,20.82
2022-08-24T04:54:32.467Z,20.84
2022-08-24T04:59:52.525Z,20.81
2022-08-24T05:37:10.326Z,21.03
2022-08-24T05:39:36.585Z,21.27
2022-08-24T05:42:02.521Z,21.48
2022-08-24T05:44:30.994Z,21.71
2022-08-24T05:46:58.210Z,21.95
2022-08-24T05:49:24.234Z,22.03
2022-08-24T05:51:50.183Z,21.99
2022-08-24T05:54:17.042Z,22.22
2022-08-24T05:56:43.053Z,22.33
2022-08-24T05:59:08.995Z,22.50
2022-08-24T06:01:36.155Z,22.71
2022-08-24T06:04:02.203Z,22.78
2022-08-24T06:06:28.183Z,22.85
2022-08-24T06:08:56.367Z,22.86
2022-08-24T06:11:22.663Z,23.10
2022-08-24T06:13:59.246Z,23.23
2022-08-24T06:16:26.942Z,23.25
2022-08-24T06:18:53.250Z,23.35
2022-08-24T06:21:21.898Z,23.55
2022-08-24T06:23:47.982Z,23.84
2022-08-24T08:23:49.339Z,28.76
2022-08-24T08:26:15.328Z,28.95
2022-08-24T08:28:41.594Z,29.02
2022-08-24T08:31:08.483Z,29.23
2022-08-24T08:33:34.872Z,29.40
2022-08-24T08:36:01.628Z,28.94
2022-08-24T08:38:27.610Z,29.20
2022-08-24T08:40:53.577Z,29.28
2022-08-24T08:43:19.563Z,29.48
2022-08-24T08:45:46.511Z,29.10
2022-08-24T08:48:12.549Z,29.11
2022-08-24T08:50:38.510Z,29.48
2022-08-24T08:53:05.587Z,29.99
2022-08-24T08:55:31.713Z,30.23
2022-08-24T08:57:58.442Z,30.33
2022-08-24T09:00:24.516Z,30.79
2022-08-24T09:02:50.862Z,30.36
2022-08-24T09:05:17.605Z,30.50
2022-08-24T09:07:43.651Z,31.15
2022-08-24T09:10:09.607Z,31.44
2022-08-24T09:12:36.271Z,32.01
2022-08-24T09:15:02.370Z,32.18
2022-08-24T09:17:28.328Z,32.11
2022-08-24T09:19:54.990Z,31.78
2022-08-24T09:22:21.027Z,31.80
2022-08-24T09:24:46.985Z,31.87
2022-08-24T09:27:13.690Z,31.49
2022-08-24T09:29:39.917Z,31.60
2022-08-24T09:32:12.278Z,31.51
2022-08-24T09:34:40.028Z,31.84
2022-08-24T09:37:06.750Z,32.14
2022-08-24T09:39:32.706Z,32.34
2022-08-24T09:41:58.755Z,31.94
2022-08-24T09:44:24.711Z,30.84
2022-08-24T09:46:51.391Z,30.44
2022-08-24T09:49:18.319Z,30.61
2022-08-24T09:51:45.019Z,31.03
2022-08-24T09:54:12.296Z,31.10
2022-08-24T09:56:38.284Z,31.54
2022-08-24T09:59:04.224Z,31.79
2022-08-24T10:01:30.257Z,32.07
2022-08-24T10:03:56.359Z,32.03
2022-08-24T10:06:22.473Z,32.06
2022-08-24T10:08:48.504Z,32.91
2022-08-24T10:11:15.364Z,33.23
2022-08-24T10:13:41.318Z,33.42
2022-08-24T10:16:08.082Z,34.14
2022-08-24T10:18:35.307Z,34.36
2022-08-24T10:21:01.420Z,34.20
2022-08-24T10:23:27.409Z,34.15
2022-08-24T10:25:53.418Z,33.53
2022-08-24T10:28:19.363Z,32.05
2022-08-24T10:30:45.362Z,32.00
2022-08-24T10:33:11.351Z,31.83
2022-08-24T10:35:37.353Z,31.49
2022-08-24T10:38:03.450Z,31.40
2022-08-24T10:40:33.397Z,31.79
2022-08-24T10:42:59.447Z,32.13
2022-08-24T10:45:25.459Z,31.82
2022-08-24T10:47:51.514Z,31.72
2022-08-24T10:50:17.467Z,32.11
2022-08-24T10:52:44.169Z,32.72
2022-08-24T10:55:10.192Z,33.35
2022-08-24T10:57:36.153Z,34.08
2022-08-24T11:00:02.149Z,34.61
2022-08-24T11:02:31.132Z,34.69
2022-08-24T11:04:57.140Z,34.30
2022-08-24T11:07:23.793Z,34.54
2022-08-24T11:09:51.581Z,34.87
2022-08-24T11:12:17.947Z,34.33
2022-08-24T11:14:44.177Z,33.83
2022-08-24T11:17:10.624Z,33.49
2022-08-24T11:19:36.927Z,33.26
2022-08-24T11:22:04.746Z,32.71
2022-08-24T11:24:30.973Z,32.81
2022-08-24T13:30:35.387Z,34.42
2022-08-24T13:33:01.347Z,34.64
2022-08-24T13:35:27.282Z,35.09
2022-08-24T13:37:53.310Z,35.76
2022-08-24T13:40:19.327Z,35.69
2022-08-24T13:42:52.408Z,35.49
2022-08-24T13:45:18.664Z,36.31
2022-08-24T13:47:44.601Z,36.42
2022-08-24T13:50:11.254Z,35.70
2022-08-24T13:52:37.312Z,35.23
2022-08-24T13:55:03.904Z,34.27
2022-08-24T13:57:30.261Z,34.19
2022-08-24T13:59:56.247Z,33.40
2022-08-24T14:02:22.191Z,33.35
2022-08-24T14:04:48.954Z,33.04
2022-08-24T14:07:15.657Z,32.92
2022-08-24T14:09:41.871Z,32.89
2022-08-24T14:12:07.847Z,32.52
2022-08-24T14:14:33.849Z,32.45
2022-08-24T14:16:59.793Z,32.40
2022-08-24T14:19:26.214Z,32.58
2022-08-24T14:21:52.955Z,32.64
2022-08-24T14:24:19.831Z,32.94
2022-08-24T14:26:47.855Z,33.67
2022-08-24T14:29:17.051Z,34.25
2022-08-24T14:31:43.785Z,34.72
2022-08-24T14:34:09.746Z,35.21
2022-08-24T14:36:35.745Z,35.46
2022-08-24T14:39:01.728Z,35.69
2022-08-24T14:41:27.672Z,35.36
2022-08-24T14:43:54.604Z,35.20
2022-08-24T14:46:20.571Z,35.47
2022-08-24T14:48:46.790Z,35.79
2022-08-24T14:51:13.040Z,35.70
2022-08-24T14:53:38.997Z,35.60
2022-08-24T14:56:04.947Z,35.48
2022-08-24T14:58:31.845Z,35.10
2022-08-24T15:00:57.830Z,34.96
2022-08-24T15:03:23.811Z,34.30
2022-08-24T15:06:09.509Z,33.70
2022-08-24T15:08:35.739Z,32.57
2022-08-24T15:11:02.659Z,32.27
2022-08-24T15:13:28.601Z,31.69
2022-08-24T15:15:54.588Z,31.65
2022-08-24T15:18:20.643Z,31.79
2022-08-24T15:20:46.630Z,32.12
2022-08-24T15:23:12.600Z,32.30
2022-08-24T15:25:38.600Z,32.33
2022-08-24T15:28:05.855Z,32.17
2022-08-24T15:30:31.826Z,31.98
2022-08-24T15:32:59.102Z,31.96
2022-08-24T15:35:25.094Z,31.54
2022-08-24T15:37:51.085Z,31.35
2022-08-24T15:40:17.141Z,31.06
2022-08-24T15:42:43.186Z,30.97
2022-08-24T15:45:09.170Z,30.71
2022-08-24T15:47:35.779Z,30.26
2022-08-24T15:50:01.783Z,30.15
2022-08-24T15:52:27.867Z,30.08
2022-08-24T15:54:53.879Z,29.99
2022-08-24T15:57:20.533Z,29.52
2022-08-24T15:59:46.503Z,29.25
2022-08-24T16:02:12.518Z,29.33
2022-08-24T16:04:39.274Z,29.28
2022-08-24T16:07:05.228Z,29.05
2022-08-24T16:09:31.480Z,28.89
2022-08-24T16:11:59.021Z,28.62
2022-08-24T16:14:25.303Z,28.56
2022-08-24T16:16:54.007Z,28.48
2022-08-24T16:19:20.428Z,28.17
2022-08-24T16:21:46.699Z,28.16
2022-08-24T16:24:13.250Z,28.13
2022-08-24T16:26:39.306Z,28.23
2022-08-24T19:21:07.287Z,26.51
2022-08-24T19:23:33.243Z,26.58
2022-08-24T19:25:59.957Z,26.61
2022-08-24T19:28:25.946Z,26.57
2022-08-24T19:30:51.889Z,26.51
2022-08-24T19:33:17.835Z,26.47
2022-08-24T19:35:43.841Z,26.27
2022-08-24T19:38:09.822Z,26.13
2022-08-24T19:40:35.805Z,26.10
2022-08-24T19:43:06.117Z,26.15
2022-08-24T19:45:34.550Z,26.28
2022-08-24T19:48:01.866Z,26.30
2022-08-24T19:50:28.579Z,26.28
2022-08-24T19:52:55.215Z,26.28
2022-08-24T19:55:21.170Z,26.31
2022-08-24T19:57:47.202Z,26.25
2022-08-24T20:00:13.147Z,26.14
2022-08-24T20:02:39.899Z,26.20
2022-08-24T20:05:05.920Z,26.22
2022-08-24T20:07:31.898Z,26.23
2022-08-24T20:09:57.861Z,26.30
2022-08-24T20:12:25.139Z,26.34
2022-08-24T20:14:51.794Z,26.28
2022-08-24T20:17:17.788Z,26.32
2022-08-24T20:19:44.136Z,26.23
2022-08-24T20:22:13.600Z,26.24
2022-08-24T20:24:39.779Z,26.10
2022-08-24T20:27:05.804Z,26.04
2022-08-24T20:29:32.564Z,25.91
2022-08-24T20:31:58.586Z,25.88
2022-08-24T20:34:24.665Z,25.92
2022-08-24T20:36:51.352Z,25.97
2022-08-24T20:39:17.346Z,26.14
2022-08-24T20:41:43.334Z,26.15
2022-08-24T20:44:09.356Z,26.13
2022-08-24T20:46:35.412Z,26.06
2022-08-24T20:49:01.430Z,26.08
2022-08-24T20:51:27.431Z,26.07
2022-08-24T20:53:53.635Z,26.02
2022-08-24T20:56:20.373Z,25.94
2022-08-24T20:58:53.819Z,25.90
2022-08-24T21:01:20.004Z,25.77
2022-08-24T21:03:46.024Z,25.76
2022-08-24T21:06:12.562Z,25.83
2022-08-24T21:08:38.639Z,25.76
2022-08-24T21:11:04.625Z,25.64
2022-08-24T21:13:31.134Z,25.56
2022-08-24T21:15:57.186Z,25.13
2022-08-24T21:18:23.175Z,25.19
2022-08-24T21:21:04.046Z,25.10
2022-08-24T21:23:30.745Z,25.35
2022-08-24T21:25:56.714Z,25.42
2022-08-24T21:28:22.673Z,25.45
2022-08-24T21:30:49.649Z,25.46
2022-08-24T21:33:15.626Z,25.41
2022-08-24T21:35:41.583Z,25.32
2022-08-24T21:38:07.940Z,25.12
2022-08-24T21:40:33.929Z,25.13
2022-08-24T21:43:00.395Z,25.22
2022-08-24T21:45:27.258Z,24.76
2022-08-24T21:47:53.194Z,24.88
2022-08-24T21:50:19.445Z,24.97
2022-08-24T21:52:53.514Z,24.56
2022-08-24T21:55:20.339Z,24.52
2022-08-24T21:57:46.329Z,24.82
2022-08-24T22:00:12.605Z,24.93
2022-08-24T22:02:39.901Z,24.81
2022-08-24T22:05:06.264Z,24.92
2022-08-24T22:07:32.651Z,25.07
2022-08-24T22:10:00.179Z,25.20
2022-08-24T22:12:26.476Z,25.12
2022-08-24T22:14:52.667Z,25.16
